sensor_id;sensor_type;location;lat;lon;timestamp;P1;durP1;ratioP1;P2;durP2;ratioP2
49722;SDS011;43484;43.608;1.458;2023-04-12T00:00:52;8.73;;;3.33;;
49722;SDS011;43484;43.608;1.458;2023-04-12T00:03:19;7.00;;;3.10;;
49722;SDS011;43484;43.608;1.458;2023-04-12T00:05:47;10.38;;;3.40;;
49722;SDS011;43484;43.608;1.458;2023-04-12T00:08:22;8.30;;;3.20;;
49722;SDS011;43484;43.608;1.458;2023-04-12T00:10:51;9.38;;;3.25;;
49722;SDS011;43484;43.608;1.458;2023-04-12T00:13:18;8.63;;;3.53;;
49722;SDS011;43484;43.608;1.458;2023-04-12T00:15:45;6.25;;;2.17;;
49722;SDS011;43484;43.608;1.458;2023-04-12T00:18:12;8.15;;;2.75;;
49722;SDS011;43484;43.608;1.458;2023-04-12T00:20:38;8.18;;;2.47;;
49722;SDS011;43484;43.608;1.458;2023-04-12T00:23:05;6.07;;;2.22;;
49722;SDS011;43484;43.608;1.458;2023-04-12T00:25:32;5.30;;;2.05;;
49722;SDS011;43484;43.608;1.458;2023-04-12T00:27:58;6.03;;;2.60;;
49722;SDS011;43484;43.608;1.458;2023-04-12T00:30:25;10.73;;;2.92;;
49722;SDS011;43484;43.608;1.458;2023-04-12T00:32:52;9.30;;;4.07;;
49722;SDS011;43484;43.608;1.458;2023-04-12T00:35:18;7.20;;;2.78;;
49722;SDS011;43484;43.608;1.458;2023-04-12T00:37:45;6.53;;;2.55;;
49722;SDS011;43484;43.608;1.458;2023-04-12T00:40:12;5.63;;;2.78;;
49722;SDS011;43484;43.608;1.458;2023-04-12T00:42:38;11.25;;;3.00;;
49722;SDS011;43484;43.608;1.458;2023-04-12T00:45:05;4.60;;;2.10;;
49722;SDS011;43484;43.608;1.458;2023-04-12T00:47:35;5.80;;;1.92;;
49722;SDS011;43484;43.608;1.458;2023-04-12T00:50:03;4.30;;;2.05;;
49722;SDS011;43484;43.608;1.458;2023-04-12T00:52:31;4.95;;;2.47;;
49722;SDS011;43484;43.608;1.458;2023-04-12T00:55:04;4.35;;;1.90;;
49722;SDS011;43484;43.608;1.458;2023-04-12T00:57:33;5.70;;;1.58;;
49722;SDS011;43484;43.608;1.458;2023-04-12T01:00:03;7.55;;;2.40;;
49722;SDS011;43484;43.608;1.458;2023-04-12T01:02:31;5.55;;;2.20;;
49722;SDS011;43484;43.608;1.458;2023-04-12T01:04:58;4.35;;;1.98;;
49722;SDS011;43484;43.608;1.458;2023-04-12T01:13:49;8.25;;;2.72;;
49722;SDS011;43484;43.608;1.458;2023-04-12T01:18:36;8.00;;;2.90;;
49722;SDS011;43484;43.608;1.458;2023-04-12T01:21:13;5.82;;;2.05;;
49722;SDS011;43484;43.608;1.458;2023-04-12T01:23:57;6.63;;;2.00;;
49722;SDS011;43484;43.608;1.458;2023-04-12T01:29:04;4.28;;;1.80;;
49722;SDS011;43484;43.608;1.458;2023-04-12T01:31:34;8.07;;;2.40;;
49722;SDS011;43484;43.608;1.458;2023-04-12T01:34:02;5.72;;;2.40;;
49722;SDS011;43484;43.608;1.458;2023-04-12T01:36:30;11.65;;;3.20;;
49722;SDS011;43484;43.608;1.458;2023-04-12T01:38:57;5.82;;;2.42;;
49722;SDS011;43484;43.608;1.458;2023-04-12T01:41:26;9.00;;;2.47;;
49722;SDS011;43484;43.608;1.458;2023-04-12T01:43:52;6.10;;;2.75;;
49722;SDS011;43484;43.608;1.458;2023-04-12T01:46:20;6.47;;;2.38;;
49722;SDS011;43484;43.608;1.458;2023-04-12T01:48:49;6.88;;;2.50;;
49722;SDS011;43484;43.608;1.458;2023-04-12T01:53:54;11.97;;;2.97;;
49722;SDS011;43484;43.608;1.458;2023-04-12T01:56:25;13.90;;;2.88;;
49722;SDS011;43484;43.608;1.458;2023-04-12T01:58:57;7.82;;;2.60;;
49722;SDS011;43484;43.608;1.458;2023-04-12T02:01:24;6.35;;;3.35;;
49722;SDS011;43484;43.608;1.458;2023-04-12T02:03:51;10.60;;;3.83;;
49722;SDS011;43484;43.608;1.458;2023-04-12T02:06:19;6.95;;;2.55;;
49722;SDS011;43484;43.608;1.458;2023-04-12T02:08:46;11.57;;;3.00;;
49722;SDS011;43484;43.608;1.458;2023-04-12T02:11:13;10.95;;;3.33;;
49722;SDS011;43484;43.608;1.458;2023-04-12T02:13:40;11.35;;;3.25;;
49722;SDS011;43484;43.608;1.458;2023-04-12T02:16:06;5.18;;;2.20;;
49722;SDS011;43484;43.608;1.458;2023-04-12T02:18:36;6.18;;;3.10;;
49722;SDS011;43484;43.608;1.458;2023-04-12T02:21:02;7.05;;;2.80;;
49722;SDS011;43484;43.608;1.458;2023-04-12T02:23:29;7.43;;;2.38;;
49722;SDS011;43484;43.608;1.458;2023-04-12T02:25:56;5.32;;;2.10;;
49722;SDS011;43484;43.608;1.458;2023-04-12T02:28:22;9.20;;;3.00;;
49722;SDS011;43484;43.608;1.458;2023-04-12T02:30:49;4.93;;;2.58;;
49722;SDS011;43484;43.608;1.458;2023-04-12T02:33:19;5.80;;;2.55;;
49722;SDS011;43484;43.608;1.458;2023-04-12T02:35:53;6.70;;;2.28;;
49722;SDS011;43484;43.608;1.458;2023-04-12T02:38:21;6.30;;;2.45;;
49722;SDS011;43484;43.608;1.458;2023-04-12T02:40:48;5.65;;;2.28;;
49722;SDS011;43484;43.608;1.458;2023-04-12T02:43:15;6.95;;;2.90;;
49722;SDS011;43484;43.608;1.458;2023-04-12T02:45:41;10.10;;;2.53;;
49722;SDS011;43484;43.608;1.458;2023-04-12T02:48:08;6.88;;;2.65;;
49722;SDS011;43484;43.608;1.458;2023-04-12T02:50:35;6.93;;;2.13;;
49722;SDS011;43484;43.608;1.458;2023-04-12T02:53:02;4.25;;;2.25;;
49722;SDS011;43484;43.608;1.458;2023-04-12T02:55:29;4.45;;;2.45;;
49722;SDS011;43484;43.608;1.458;2023-04-12T02:57:55;8.02;;;2.40;;
49722;SDS011;43484;43.608;1.458;2023-04-12T03:00:22;5.18;;;2.83;;
49722;SDS011;43484;43.608;1.458;2023-04-12T03:02:49;5.68;;;2.55;;
49722;SDS011;43484;43.608;1.458;2023-04-12T03:05:17;3.63;;;1.90;;
49722;SDS011;43484;43.608;1.458;2023-04-12T03:07:44;6.18;;;2.22;;
49722;SDS011;43484;43.608;1.458;2023-04-12T03:10:11;5.70;;;2.08;;
49722;SDS011;43484;43.608;1.458;2023-04-12T03:12:38;6.13;;;2.25;;
49722;SDS011;43484;43.608;1.458;2023-04-12T03:15:05;6.38;;;2.75;;
49722;SDS011;43484;43.608;1.458;2023-04-12T03:17:32;13.77;;;3.80;;
49722;SDS011;43484;43.608;1.458;2023-04-12T03:20:05;8.13;;;2.65;;
49722;SDS011;43484;43.608;1.458;2023-04-12T03:22:35;6.60;;;2.83;;
49722;SDS011;43484;43.608;1.458;2023-04-12T03:25:03;6.05;;;2.20;;
49722;SDS011;43484;43.608;1.458;2023-04-12T03:27:30;9.90;;;2.70;;
49722;SDS011;43484;43.608;1.458;2023-04-12T03:29:57;7.47;;;2.78;;
49722;SDS011;43484;43.608;1.458;2023-04-12T03:32:23;5.70;;;2.35;;
49722;SDS011;43484;43.608;1.458;2023-04-12T03:34:50;6.38;;;3.03;;
49722;SDS011;43484;43.608;1.458;2023-04-12T03:37:17;5.93;;;2.75;;
49722;SDS011;43484;43.608;1.458;2023-04-12T03:39:44;6.50;;;2.67;;
49722;SDS011;43484;43.608;1.458;2023-04-12T03:42:13;5.28;;;2.70;;
49722;SDS011;43484;43.608;1.458;2023-04-12T03:44:57;7.93;;;2.67;;
49722;SDS011;43484;43.608;1.458;2023-04-12T03:47:24;9.75;;;2.92;;
49722;SDS011;43484;43.608;1.458;2023-04-12T03:49:53;2.75;;;1.95;;
49722;SDS011;43484;43.608;1.458;2023-04-12T03:52:36;5.13;;;2.42;;
49722;SDS011;43484;43.608;1.458;2023-04-12T03:55:03;3.05;;;1.90;;
49722;SDS011;43484;43.608;1.458;2023-04-12T03:57:33;9.48;;;2.83;;
49722;SDS011;43484;43.608;1.458;2023-04-12T04:00:00;3.80;;;2.13;;
49722;SDS011;43484;43.608;1.458;2023-04-12T04:02:28;12.40;;;3.65;;
49722;SDS011;43484;43.608;1.458;2023-04-12T04:04:55;9.30;;;3.03;;
49722;SDS011;43484;43.608;1.458;2023-04-12T04:07:22;5.55;;;2.60;;
49722;SDS011;43484;43.608;1.458;2023-04-12T04:09:48;8.60;;;2.15;;
49722;SDS011;43484;43.608;1.458;2023-04-12T04:12:15;10.70;;;2.88;;
49722;SDS011;43484;43.608;1.458;2023-04-12T04:14:42;7.63;;;2.95;;
49722;SDS011;43484;43.608;1.458;2023-04-12T04:17:09;4.95;;;2.72;;
49722;SDS011;43484;43.608;1.458;2023-04-12T04:19:36;6.43;;;2.72;;
49722;SDS011;43484;43.608;1.458;2023-04-12T04:22:03;6.13;;;2.70;;
49722;SDS011;43484;43.608;1.458;2023-04-12T04:24:30;5.90;;;2.65;;
49722;SDS011;43484;43.608;1.458;2023-04-12T04:26:56;7.00;;;2.72;;
49722;SDS011;43484;43.608;1.458;2023-04-12T04:29:24;11.27;;;3.33;;
49722;SDS011;43484;43.608;1.458;2023-04-12T04:31:51;9.63;;;2.63;;
49722;SDS011;43484;43.608;1.458;2023-04-12T04:34:19;7.45;;;2.88;;
49722;SDS011;43484;43.608;1.458;2023-04-12T04:36:47;9.73;;;2.80;;
49722;SDS011;43484;43.608;1.458;2023-04-12T04:39:14;5.32;;;3.13;;
49722;SDS011;43484;43.608;1.458;2023-04-12T04:41:41;4.97;;;2.85;;
49722;SDS011;43484;43.608;1.458;2023-04-12T04:44:07;5.40;;;2.40;;
49722;SDS011;43484;43.608;1.458;2023-04-12T04:46:36;9.80;;;3.28;;
49722;SDS011;43484;43.608;1.458;2023-04-12T04:49:03;5.85;;;2.88;;
49722;SDS011;43484;43.608;1.458;2023-04-12T04:51:31;5.60;;;2.70;;
49722;SDS011;43484;43.608;1.458;2023-04-12T04:53:57;5.32;;;2.85;;
49722;SDS011;43484;43.608;1.458;2023-04-12T04:56:24;9.68;;;2.50;;
49722;SDS011;43484;43.608;1.458;2023-04-12T04:58:51;5.35;;;2.55;;
49722;SDS011;43484;43.608;1.458;2023-04-12T05:01:21;8.82;;;2.92;;
49722;SDS011;43484;43.608;1.458;2023-04-12T05:03:51;8.70;;;2.72;;
49722;SDS011;43484;43.608;1.458;2023-04-12T05:06:18;7.75;;;3.13;;
49722;SDS011;43484;43.608;1.458;2023-04-12T05:08:44;9.57;;;3.03;;
49722;SDS011;43484;43.608;1.458;2023-04-12T05:11:11;7.55;;;3.72;;
49722;SDS011;43484;43.608;1.458;2023-04-12T05:13:38;7.00;;;3.70;;
49722;SDS011;43484;43.608;1.458;2023-04-12T05:16:05;7.70;;;3.67;;
49722;SDS011;43484;43.608;1.458;2023-04-12T05:18:33;7.72;;;4.20;;
49722;SDS011;43484;43.608;1.458;2023-04-12T05:21:03;10.82;;;3.80;;
49722;SDS011;43484;43.608;1.458;2023-04-12T05:23:33;14.10;;;4.43;;
49722;SDS011;43484;43.608;1.458;2023-04-12T05:26:02;10.05;;;3.83;;
49722;SDS011;43484;43.608;1.458;2023-04-12T05:28:29;9.57;;;4.20;;
49722;SDS011;43484;43.608;1.458;2023-04-12T05:30:56;7.63;;;4.03;;
49722;SDS011;43484;43.608;1.458;2023-04-12T05:33:22;11.25;;;3.50;;
49722;SDS011;43484;43.608;1.458;2023-04-12T05:35:49;10.00;;;3.72;;
49722;SDS011;43484;43.608;1.458;2023-04-12T05:38:15;5.68;;;3.92;;
49722;SDS011;43484;43.608;1.458;2023-04-12T05:40:42;9.00;;;4.20;;
49722;SDS011;43484;43.608;1.458;2023-04-12T05:43:09;9.15;;;3.92;;
49722;SDS011;43484;43.608;1.458;2023-04-12T05:45:39;9.27;;;3.85;;
49722;SDS011;43484;43.608;1.458;2023-04-12T05:48:06;7.30;;;4.18;;
49722;SDS011;43484;43.608;1.458;2023-04-12T05:50:34;12.82;;;4.97;;
49722;SDS011;43484;43.608;1.458;2023-04-12T05:53:01;11.55;;;6.03;;
49722;SDS011;43484;43.608;1.458;2023-04-12T05:55:28;12.65;;;4.72;;
49722;SDS011;43484;43.608;1.458;2023-04-12T05:57:55;11.18;;;4.22;;
49722;SDS011;43484;43.608;1.458;2023-04-12T06:00:23;9.88;;;4.72;;
49722;SDS011;43484;43.608;1.458;2023-04-12T06:02:51;11.57;;;4.40;;
49722;SDS011;43484;43.608;1.458;2023-04-12T06:05:18;7.68;;;3.92;;
49722;SDS011;43484;43.608;1.458;2023-04-12T06:07:45;10.60;;;5.07;;
49722;SDS011;43484;43.608;1.458;2023-04-12T06:10:15;11.18;;;4.88;;
49722;SDS011;43484;43.608;1.458;2023-04-12T06:12:43;10.27;;;4.88;;
49722;SDS011;43484;43.608;1.458;2023-04-12T06:15:10;17.08;;;5.13;;
49722;SDS011;43484;43.608;1.458;2023-04-12T06:17:37;12.40;;;5.07;;
49722;SDS011;43484;43.608;1.458;2023-04-12T06:20:04;8.32;;;4.90;;
49722;SDS011;43484;43.608;1.458;2023-04-12T06:22:35;14.63;;;5.32;;
49722;SDS011;43484;43.608;1.458;2023-04-12T06:25:02;18.13;;;5.55;;
49722;SDS011;43484;43.608;1.458;2023-04-12T06:27:30;14.15;;;5.78;;
49722;SDS011;43484;43.608;1.458;2023-04-12T06:29:57;11.88;;;6.05;;
49722;SDS011;43484;43.608;1.458;2023-04-12T06:32:24;13.02;;;5.70;;
49722;SDS011;43484;43.608;1.458;2023-04-12T06:34:51;9.95;;;5.18;;
49722;SDS011;43484;43.608;1.458;2023-04-12T06:37:18;14.85;;;6.85;;
49722;SDS011;43484;43.608;1.458;2023-04-12T06:39:44;11.60;;;6.30;;
49722;SDS011;43484;43.608;1.458;2023-04-12T06:42:11;17.58;;;6.80;;
49722;SDS011;43484;43.608;1.458;2023-04-12T06:44:40;12.98;;;6.38;;
49722;SDS011;43484;43.608;1.458;2023-04-12T06:47:07;12.65;;;6.45;;
49722;SDS011;43484;43.608;1.458;2023-04-12T06:49:34;10.00;;;6.82;;
49722;SDS011;43484;43.608;1.458;2023-04-12T06:52:01;11.88;;;6.85;;
49722;SDS011;43484;43.608;1.458;2023-04-12T06:54:27;15.18;;;6.05;;
49722;SDS011;43484;43.608;1.458;2023-04-12T06:56:54;23.27;;;7.03;;
49722;SDS011;43484;43.608;1.458;2023-04-12T06:59:22;27.17;;;6.88;;
49722;SDS011;43484;43.608;1.458;2023-04-12T07:01:49;11.48;;;5.75;;
49722;SDS011;43484;43.608;1.458;2023-04-12T07:04:16;15.73;;;6.35;;
49722;SDS011;43484;43.608;1.458;2023-04-12T07:06:42;13.35;;;5.35;;
49722;SDS011;43484;43.608;1.458;2023-04-12T07:09:09;15.55;;;6.30;;
49722;SDS011;43484;43.608;1.458;2023-04-12T07:11:36;14.40;;;6.57;;
49722;SDS011;43484;43.608;1.458;2023-04-12T07:14:02;12.43;;;5.65;;
49722;SDS011;43484;43.608;1.458;2023-04-12T07:16:29;14.73;;;5.60;;
49722;SDS011;43484;43.608;1.458;2023-04-12T07:18:59;12.48;;;5.10;;
49722;SDS011;43484;43.608;1.458;2023-04-12T07:21:26;13.45;;;5.50;;
49722;SDS011;43484;43.608;1.458;2023-04-12T07:23:54;12.25;;;5.55;;
49722;SDS011;43484;43.608;1.458;2023-04-12T07:26:21;13.80;;;5.90;;
49722;SDS011;43484;43.608;1.458;2023-04-12T07:28:48;18.20;;;5.60;;
49722;SDS011;43484;43.608;1.458;2023-04-12T07:31:15;14.60;;;6.10;;
49722;SDS011;43484;43.608;1.458;2023-04-12T07:33:41;12.20;;;6.25;;
49722;SDS011;43484;43.608;1.458;2023-04-12T07:36:09;15.18;;;5.88;;
49722;SDS011;43484;43.608;1.458;2023-04-12T07:38:36;15.82;;;6.15;;
49722;SDS011;43484;43.608;1.458;2023-04-12T07:41:03;25.20;;;6.78;;
49722;SDS011;43484;43.608;1.458;2023-04-12T07:43:30;14.18;;;6.57;;
49722;SDS011;43484;43.608;1.458;2023-04-12T07:45:56;13.40;;;6.15;;
49722;SDS011;43484;43.608;1.458;2023-04-12T07:48:23;19.90;;;6.25;;
49722;SDS011;43484;43.608;1.458;2023-04-12T07:50:50;15.75;;;5.65;;
49722;SDS011;43484;43.608;1.458;2023-04-12T07:53:26;13.70;;;6.03;;
49722;SDS011;43484;43.608;1.458;2023-04-12T07:55:54;12.77;;;5.40;;
49722;SDS011;43484;43.608;1.458;2023-04-12T07:58:22;11.50;;;4.38;;
49722;SDS011;43484;43.608;1.458;2023-04-12T08:00:50;10.32;;;5.20;;
49722;SDS011;43484;43.608;1.458;2023-04-12T08:03:17;9.43;;;4.93;;
49722;SDS011;43484;43.608;1.458;2023-04-12T08:05:44;11.70;;;5.60;;
49722;SDS011;43484;43.608;1.458;2023-04-12T08:08:14;17.05;;;5.40;;
49722;SDS011;43484;43.608;1.458;2023-04-12T08:10:41;14.93;;;4.78;;
49722;SDS011;43484;43.608;1.458;2023-04-12T08:13:08;13.25;;;5.35;;
49722;SDS011;43484;43.608;1.458;2023-04-12T08:15:35;20.50;;;5.50;;
49722;SDS011;43484;43.608;1.458;2023-04-12T08:18:01;13.02;;;5.95;;
49722;SDS011;43484;43.608;1.458;2023-04-12T08:20:29;14.68;;;6.00;;
49722;SDS011;43484;43.608;1.458;2023-04-12T08:22:56;17.05;;;5.15;;
49722;SDS011;43484;43.608;1.458;2023-04-12T08:25:23;16.02;;;5.78;;
49722;SDS011;43484;43.608;1.458;2023-04-12T08:27:50;12.60;;;5.38;;
49722;SDS011;43484;43.608;1.458;2023-04-12T08:30:17;15.00;;;5.18;;
49722;SDS011;43484;43.608;1.458;2023-04-12T08:32:44;20.88;;;5.43;;
49722;SDS011;43484;43.608;1.458;2023-04-12T08:35:13;8.35;;;3.97;;
49722;SDS011;43484;43.608;1.458;2023-04-12T08:37:40;10.75;;;4.10;;
49722;SDS011;43484;43.608;1.458;2023-04-12T08:40:07;13.50;;;4.05;;
49722;SDS011;43484;43.608;1.458;2023-04-12T08:42:34;9.90;;;3.10;;
49722;SDS011;43484;43.608;1.458;2023-04-12T08:45:06;12.30;;;3.63;;
49722;SDS011;43484;43.608;1.458;2023-04-12T08:47:39;7.95;;;3.38;;
49722;SDS011;43484;43.608;1.458;2023-04-12T08:50:09;12.50;;;3.67;;
49722;SDS011;43484;43.608;1.458;2023-04-12T08:52:39;12.75;;;3.67;;
49722;SDS011;43484;43.608;1.458;2023-04-12T08:55:07;10.07;;;3.63;;
49722;SDS011;43484;43.608;1.458;2023-04-12T08:57:38;11.45;;;3.30;;
49722;SDS011;43484;43.608;1.458;2023-04-12T09:00:07;7.97;;;2.92;;
49722;SDS011;43484;43.608;1.458;2023-04-12T09:02:35;10.63;;;2.70;;
49722;SDS011;43484;43.608;1.458;2023-04-12T09:05:04;9.80;;;3.10;;
49722;SDS011;43484;43.608;1.458;2023-04-12T09:07:32;8.18;;;3.10;;
49722;SDS011;43484;43.608;1.458;2023-04-12T09:09:59;7.22;;;2.90;;
49722;SDS011;43484;43.608;1.458;2023-04-12T09:12:27;9.18;;;3.47;;
49722;SDS011;43484;43.608;1.458;2023-04-12T09:15:06;9.13;;;2.88;;
49722;SDS011;43484;43.608;1.458;2023-04-12T09:17:39;10.95;;;3.20;;
49722;SDS011;43484;43.608;1.458;2023-04-12T09:22:43;8.70;;;2.90;;
49722;SDS011;43484;43.608;1.458;2023-04-12T09:25:12;11.50;;;3.17;;
49722;SDS011;43484;43.608;1.458;2023-04-12T09:30:17;9.50;;;3.00;;
49722;SDS011;43484;43.608;1.458;2023-04-12T09:32:45;12.18;;;2.80;;
49722;SDS011;43484;43.608;1.458;2023-04-12T09:35:14;7.85;;;3.00;;
49722;SDS011;43484;43.608;1.458;2023-04-12T09:37:41;8.02;;;2.80;;
49722;SDS011;43484;43.608;1.458;2023-04-12T09:40:08;10.20;;;2.63;;
49722;SDS011;43484;43.608;1.458;2023-04-12T09:42:44;9.32;;;2.83;;
49722;SDS011;43484;43.608;1.458;2023-04-12T09:45:23;9.57;;;2.90;;
49722;SDS011;43484;43.608;1.458;2023-04-12T09:47:51;17.58;;;3.13;;
49722;SDS011;43484;43.608;1.458;2023-04-12T09:50:19;13.85;;;3.03;;
49722;SDS011;43484;43.608;1.458;2023-04-12T09:52:48;9.80;;;2.80;;
49722;SDS011;43484;43.608;1.458;2023-04-12T09:55:15;14.15;;;2.63;;
49722;SDS011;43484;43.608;1.458;2023-04-12T09:57:43;12.10;;;2.80;;
49722;SDS011;43484;43.608;1.458;2023-04-12T10:00:11;9.52;;;2.40;;
49722;SDS011;43484;43.608;1.458;2023-04-12T10:02:44;14.73;;;3.00;;
49722;SDS011;43484;43.608;1.458;2023-04-12T10:05:14;17.52;;;3.22;;
49722;SDS011;43484;43.608;1.458;2023-04-12T10:07:45;5.45;;;2.00;;
49722;SDS011;43484;43.608;1.458;2023-04-12T10:10:13;7.95;;;2.55;;
49722;SDS011;43484;43.608;1.458;2023-04-12T10:12:42;12.30;;;2.30;;
49722;SDS011;43484;43.608;1.458;2023-04-12T10:15:11;14.23;;;3.03;;
49722;SDS011;43484;43.608;1.458;2023-04-12T10:17:42;9.65;;;3.20;;
49722;SDS011;43484;43.608;1.458;2023-04-12T10:20:14;14.32;;;2.80;;
49722;SDS011;43484;43.608;1.458;2023-04-12T10:22:47;13.25;;;2.97;;
49722;SDS011;43484;43.608;1.458;2023-04-12T10:25:17;7.90;;;2.65;;
49722;SDS011;43484;43.608;1.458;2023-04-12T10:27:49;10.83;;;2.00;;
49722;SDS011;43484;43.608;1.458;2023-04-12T10:30:25;6.03;;;2.10;;
49722;SDS011;43484;43.608;1.458;2023-04-12T10:35:27;7.53;;;2.58;;
49722;SDS011;43484;43.608;1.458;2023-04-12T10:37:59;11.15;;;2.25;;
49722;SDS011;43484;43.608;1.458;2023-04-12T10:40:29;11.00;;;2.45;;
49722;SDS011;43484;43.608;1.458;2023-04-12T10:43:23;8.35;;;2.35;;
49722;SDS011;43484;43.608;1.458;2023-04-12T10:45:47;17.27;;;1.90;;
49722;SDS011;43484;43.608;1.458;2023-04-12T10:48:28;7.93;;;2.03;;
49722;SDS011;43484;43.608;1.458;2023-04-12T10:53:48;9.97;;;1.93;;
49722;SDS011;43484;43.608;1.458;2023-04-12T10:59:01;9.18;;;2.05;;
49722;SDS011;43484;43.608;1.458;2023-04-12T11:01:34;9.32;;;1.85;;
49722;SDS011;43484;43.608;1.458;2023-04-12T11:19:52;2.78;;;1.30;;
49722;SDS011;43484;43.608;1.458;2023-04-12T11:22:24;8.13;;;1.95;;
49722;SDS011;43484;43.608;1.458;2023-04-12T11:24:57;5.80;;;1.50;;
49722;SDS011;43484;43.608;1.458;2023-04-12T11:27:26;5.43;;;1.35;;
49722;SDS011;43484;43.608;1.458;2023-04-12T11:29:55;3.72;;;1.02;;
49722;SDS011;43484;43.608;1.458;2023-04-12T11:32:24;7.63;;;1.25;;
49722;SDS011;43484;43.608;1.458;2023-04-12T11:34:53;6.65;;;1.27;;
49722;SDS011;43484;43.608;1.458;2023-04-12T11:37:21;6.82;;;1.45;;
49722;SDS011;43484;43.608;1.458;2023-04-12T11:39:51;6.07;;;1.60;;
49722;SDS011;43484;43.608;1.458;2023-04-12T11:42:20;8.02;;;2.15;;
49722;SDS011;43484;43.608;1.458;2023-04-12T11:44:49;9.23;;;1.40;;
49722;SDS011;43484;43.608;1.458;2023-04-12T11:47:25;8.65;;;1.75;;
49722;SDS011;43484;43.608;1.458;2023-04-12T11:49:53;4.63;;;1.27;;
49722;SDS011;43484;43.608;1.458;2023-04-12T11:52:21;10.63;;;1.52;;
49722;SDS011;43484;43.608;1.458;2023-04-12T11:54:55;10.23;;;2.00;;
49722;SDS011;43484;43.608;1.458;2023-04-12T11:57:33;7.88;;;1.77;;
49722;SDS011;43484;43.608;1.458;2023-04-12T12:00:00;6.13;;;1.73;;
49722;SDS011;43484;43.608;1.458;2023-04-12T12:02:32;8.65;;;2.00;;
49722;SDS011;43484;43.608;1.458;2023-04-12T12:05:11;11.25;;;1.67;;
49722;SDS011;43484;43.608;1.458;2023-04-12T12:07:38;10.73;;;1.33;;
49722;SDS011;43484;43.608;1.458;2023-04-12T12:10:05;5.88;;;1.80;;
49722;SDS011;43484;43.608;1.458;2023-04-12T12:12:32;9.38;;;1.80;;
49722;SDS011;43484;43.608;1.458;2023-04-12T12:14:59;7.45;;;1.60;;
49722;SDS011;43484;43.608;1.458;2023-04-12T12:17:27;8.90;;;1.77;;
49722;SDS011;43484;43.608;1.458;2023-04-12T12:19:55;7.45;;;1.90;;
49722;SDS011;43484;43.608;1.458;2023-04-12T12:22:24;13.05;;;2.15;;
49722;SDS011;43484;43.608;1.458;2023-04-12T12:24:53;13.48;;;2.38;;
49722;SDS011;43484;43.608;1.458;2023-04-12T12:27:35;8.00;;;2.08;;
49722;SDS011;43484;43.608;1.458;2023-04-12T12:30:05;9.48;;;2.53;;
49722;SDS011;43484;43.608;1.458;2023-04-12T12:32:33;9.32;;;1.98;;
49722;SDS011;43484;43.608;1.458;2023-04-12T12:35:06;7.43;;;1.98;;
49722;SDS011;43484;43.608;1.458;2023-04-12T12:37:34;12.02;;;2.25;;
49722;SDS011;43484;43.608;1.458;2023-04-12T12:40:08;12.32;;;2.67;;
49722;SDS011;43484;43.608;1.458;2023-04-12T12:42:57;10.50;;;2.50;;
49722;SDS011;43484;43.608;1.458;2023-04-12T12:45:25;11.15;;;2.45;;
49722;SDS011;43484;43.608;1.458;2023-04-12T12:47:54;11.70;;;2.63;;
49722;SDS011;43484;43.608;1.458;2023-04-12T12:50:29;9.10;;;2.70;;
49722;SDS011;43484;43.608;1.458;2023-04-12T12:53:01;7.93;;;2.20;;
49722;SDS011;43484;43.608;1.458;2023-04-12T12:55:29;9.93;;;3.42;;
49722;SDS011;43484;43.608;1.458;2023-04-12T12:57:57;11.90;;;2.90;;
49722;SDS011;43484;43.608;1.458;2023-04-12T13:00:32;9.23;;;3.05;;
49722;SDS011;43484;43.608;1.458;2023-04-12T13:02:59;18.55;;;4.57;;
49722;SDS011;43484;43.608;1.458;2023-04-12T13:05:27;12.43;;;1.52;;
49722;SDS011;43484;43.608;1.458;2023-04-12T13:07:55;4.47;;;0.50;;
49722;SDS011;43484;43.608;1.458;2023-04-12T13:10:21;3.53;;;1.05;;
49722;SDS011;43484;43.608;1.458;2023-04-12T13:12:49;5.93;;;0.57;;
49722;SDS011;43484;43.608;1.458;2023-04-12T13:15:16;4.45;;;0.65;;
49722;SDS011;43484;43.608;1.458;2023-04-12T13:17:51;1.40;;;0.50;;
49722;SDS011;43484;43.608;1.458;2023-04-12T13:20:19;3.17;;;0.60;;
49722;SDS011;43484;43.608;1.458;2023-04-12T13:22:46;5.28;;;0.80;;
49722;SDS011;43484;43.608;1.458;2023-04-12T13:25:12;4.47;;;0.80;;
49722;SDS011;43484;43.608;1.458;2023-04-12T13:27:39;3.97;;;0.45;;
49722;SDS011;43484;43.608;1.458;2023-04-12T13:30:06;2.53;;;0.57;;
49722;SDS011;43484;43.608;1.458;2023-04-12T13:32:33;4.95;;;1.85;;
49722;SDS011;43484;43.608;1.458;2023-04-12T13:35:01;10.05;;;1.83;;
49722;SDS011;43484;43.608;1.458;2023-04-12T13:37:28;3.78;;;0.63;;
49722;SDS011;43484;43.608;1.458;2023-04-12T13:39:55;3.85;;;0.50;;
49722;SDS011;43484;43.608;1.458;2023-04-12T13:42:22;5.75;;;0.90;;
49722;SDS011;43484;43.608;1.458;2023-04-12T13:44:49;2.83;;;0.82;;
49722;SDS011;43484;43.608;1.458;2023-04-12T13:47:15;1.05;;;0.40;;
49722;SDS011;43484;43.608;1.458;2023-04-12T13:49:43;4.07;;;0.52;;
49722;SDS011;43484;43.608;1.458;2023-04-12T13:52:10;4.53;;;0.73;;
49722;SDS011;43484;43.608;1.458;2023-04-12T13:54:39;1.52;;;0.50;;
49722;SDS011;43484;43.608;1.458;2023-04-12T13:57:06;7.57;;;0.63;;
49722;SDS011;43484;43.608;1.458;2023-04-12T13:59:33;4.45;;;1.17;;
49722;SDS011;43484;43.608;1.458;2023-04-12T14:02:00;4.28;;;0.30;;
49722;SDS011;43484;43.608;1.458;2023-04-12T14:04:27;6.50;;;0.88;;
49722;SDS011;43484;43.608;1.458;2023-04-12T14:06:54;3.33;;;0.50;;
49722;SDS011;43484;43.608;1.458;2023-04-12T14:09:23;8.02;;;0.63;;
49722;SDS011;43484;43.608;1.458;2023-04-12T14:11:51;0.88;;;0.45;;
49722;SDS011;43484;43.608;1.458;2023-04-12T14:14:20;7.55;;;0.55;;
49722;SDS011;43484;43.608;1.458;2023-04-12T14:16:48;4.90;;;0.75;;
49722;SDS011;43484;43.608;1.458;2023-04-12T14:19:17;6.30;;;0.50;;
49722;SDS011;43484;43.608;1.458;2023-04-12T14:21:43;4.53;;;0.50;;
49722;SDS011;43484;43.608;1.458;2023-04-12T14:24:10;2.70;;;0.55;;
49722;SDS011;43484;43.608;1.458;2023-04-12T14:26:37;4.18;;;0.60;;
49722;SDS011;43484;43.608;1.458;2023-04-12T14:29:05;3.20;;;0.50;;
49722;SDS011;43484;43.608;1.458;2023-04-12T14:31:33;5.13;;;0.50;;
49722;SDS011;43484;43.608;1.458;2023-04-12T14:34:01;4.57;;;0.63;;
49722;SDS011;43484;43.608;1.458;2023-04-12T14:36:28;5.45;;;0.52;;
49722;SDS011;43484;43.608;1.458;2023-04-12T14:38:56;6.15;;;0.65;;
49722;SDS011;43484;43.608;1.458;2023-04-12T14:41:23;5.25;;;0.75;;
49722;SDS011;43484;43.608;1.458;2023-04-12T14:43:50;3.28;;;0.60;;
49722;SDS011;43484;43.608;1.458;2023-04-12T14:46:17;5.15;;;0.90;;
49722;SDS011;43484;43.608;1.458;2023-04-12T14:48:44;8.30;;;0.90;;
49722;SDS011;43484;43.608;1.458;2023-04-12T14:51:10;4.05;;;0.80;;
49722;SDS011;43484;43.608;1.458;2023-04-12T14:53:37;4.18;;;1.30;;
49722;SDS011;43484;43.608;1.458;2023-04-12T14:56:04;5.70;;;0.68;;
49722;SDS011;43484;43.608;1.458;2023-04-12T14:58:42;5.10;;;0.85;;
49722;SDS011;43484;43.608;1.458;2023-04-12T15:01:10;4.47;;;0.68;;
49722;SDS011;43484;43.608;1.458;2023-04-12T15:03:37;8.90;;;1.08;;
49722;SDS011;43484;43.608;1.458;2023-04-12T15:06:07;5.65;;;0.80;;
49722;SDS011;43484;43.608;1.458;2023-04-12T15:08:34;5.75;;;1.10;;
49722;SDS011;43484;43.608;1.458;2023-04-12T15:11:07;8.43;;;1.00;;
49722;SDS011;43484;43.608;1.458;2023-04-12T15:13:38;4.85;;;0.70;;
49722;SDS011;43484;43.608;1.458;2023-04-12T15:16:07;4.03;;;1.17;;
49722;SDS011;43484;43.608;1.458;2023-04-12T15:18:35;4.53;;;0.80;;
49722;SDS011;43484;43.608;1.458;2023-04-12T15:21:09;7.22;;;0.80;;
49722;SDS011;43484;43.608;1.458;2023-04-12T15:23:38;6.65;;;0.60;;
49722;SDS011;43484;43.608;1.458;2023-04-12T15:26:07;6.85;;;1.00;;
49722;SDS011;43484;43.608;1.458;2023-04-12T15:28:37;7.03;;;0.85;;
49722;SDS011;43484;43.608;1.458;2023-04-12T15:31:04;5.53;;;1.02;;
49722;SDS011;43484;43.608;1.458;2023-04-12T15:33:31;7.70;;;1.15;;